Time;durP1;ratioP1;P1;durP2;ratioP2;P2;SDS_P1;SDS_P2;PMS_P1;PMS_P2;Temp;Humidity;BMP_temperature;BMP_pressure;BME280_temperature;BME280_humidity;BME280_pressure;Samples;Min_cycle;Max_cycle;Signal;HPM_P1;HPM_P2
2023/08/02 00:00:58;;;;;;;7.50;1.77;;;16.70;99.90;;;;;;5111747;27;20129;-76
2023/08/02 00:04:00;;;;;;;4.15;1.58;;;16.80;99.90;;;;;;5097768;27;20039;-74
2023/08/02 00:07:02;;;;;;;5.15;1.70;;;16.80;99.90;;;;;;5112811;27;20047;-76
2023/08/02 00:10:03;;;;;;;3.03;1.70;;;16.80;99.90;;;;;;5077161;27;20090;-74
2023/08/02 00:13:13;;;;;;;6.57;2.40;;;16.80;99.90;;;;;;5101609;27;20090;-77
2023/08/02 00:16:09;;;;;;;2.88;1.60;;;16.80;99.90;;;;;;5069667;27;20106;-76
2023/08/02 00:19:04;;;;;;;7.53;2.22;;;16.80;99.90;;;;;;5078054;27;20054;-75
2023/08/02 00:21:48;;;;;;;8.60;2.33;;;16.80;99.90;;;;;;5095438;27;20112;-76
2023/08/02 00:24:56;;;;;;;6.63;2.47;;;16.80;99.90;;;;;;5089277;27;20043;-75
2023/08/02 00:27:48;;;;;;;6.60;2.25;;;16.90;99.90;;;;;;5096255;27;20282;-76
2023/08/02 00:30:51;;;;;;;5.53;2.22;;;16.90;99.90;;;;;;5086393;27;20410;-74
2023/08/02 00:34:11;;;;;;;6.32;2.80;;;17.10;99.90;;;;;;5091751;27;21435;-75
2023/08/02 00:37:14;;;;;;;6.70;2.58;;;16.80;99.90;;;;;;5101062;27;20104;-78
2023/08/02 00:40:01;;;;;;;5.65;2.53;;;16.80;99.90;;;;;;5100297;27;20255;-77
2023/08/02 00:42:52;;;;;;;4.10;2.30;;;16.80;99.90;;;;;;5081607;28;20481;-77
2023/08/02 00:46:00;;;;;;;5.55;2.40;;;16.80;99.90;;;;;;5097226;27;20071;-78
2023/08/02 00:49:21;;;;;;;7.18;2.60;;;16.80;99.90;;;;;;5077279;27;20047;-77
2023/08/02 00:52:05;;;;;;;6.57;2.67;;;16.80;99.90;;;;;;5078708;27;20089;-77
2023/08/02 00:55:10;;;;;;;8.30;3.00;;;16.80;99.90;;;;;;5096264;27;20058;-76
2023/08/02 00:58:07;;;;;;;6.72;2.90;;;16.80;99.90;;;;;;5078118;27;20053;-78
2023/08/02 01:01:16;;;;;;;9.93;2.60;;;16.80;99.90;;;;;;5066813;28;20534;-75
2023/08/02 01:04:48;;;;;;;8.10;2.80;;;17.80;99.90;;;;;;5045540;27;20179;-76
2023/08/02 01:08:20;;;;;;;5.53;2.75;;;16.80;99.90;;;;;;5100651;28;20059;-75
2023/08/02 01:11:27;;;;;;;5.35;2.45;;;16.80;99.90;;;;;;5041761;28;20056;-75
2023/08/02 01:14:24;;;;;;;4.57;2.30;;;16.80;99.90;;;;;;5025829;28;20063;-76
2023/08/02 01:17:36;;;;;;;6.05;2.70;;;16.70;99.90;;;;;;5041091;28;20083;-75
2023/08/02 01:20:18;;;;;;;8.48;2.85;;;16.70;99.90;;;;;;5026560;28;20068;-78
2023/08/02 01:23:07;;;;;;;5.38;3.13;;;16.70;99.90;;;;;;5042442;28;20093;-77
2023/08/02 01:25:55;;;;;;;5.65;3.22;;;16.70;99.90;;;;;;5029802;28;20044;-78
2023/08/02 01:29:35;;;;;;;8.60;3.60;;;16.60;99.90;;;;;;5044871;28;20036;-76
2023/08/02 01:32:44;;;;;;;7.90;3.15;;;16.70;99.90;;;;;;4968256;28;20108;-75
2023/08/02 01:35:36;;;;;;;8.48;3.33;;;16.60;99.90;;;;;;5040849;28;20040;-76
2023/08/02 01:38:49;;;;;;;5.63;3.22;;;17.00;99.90;;;;;;5042165;28;20113;-76
2023/08/02 01:41:39;;;;;;;7.85;3.40;;;16.60;99.90;;;;;;5027612;28;20148;-76
2023/08/02 01:44:39;;;;;;;8.00;3.72;;;16.20;99.90;;;;;;5024693;28;20061;-78
2023/08/02 01:47:27;;;;;;;6.00;3.75;;;16.50;99.90;;;;;;5074985;28;20098;-76
2023/08/02 01:50:22;;;;;;;9.73;3.78;;;16.50;99.90;;;;;;5077198;28;20058;-75
2023/08/02 01:53:14;;;;;;;5.65;3.55;;;15.70;99.90;;;;;;5069354;28;20062;-78
2023/08/02 01:56:03;;;;;;;10.23;3.90;;;16.40;99.90;;;;;;5082576;28;20063;-77
2023/08/02 01:59:05;;;;;;;9.00;4.72;;;16.40;99.90;;;;;;5085053;27;20046;-77
2023/08/02 02:02:13;;;;;;;8.68;3.95;;;16.40;99.90;;;;;;5081978;27;20039;-76
2023/08/02 02:05:08;;;;;;;7.82;4.30;;;16.30;99.90;;;;;;5088047;27;20119;-78
2023/08/02 02:08:28;;;;;;;8.05;4.70;;;16.30;99.90;;;;;;5077248;27;20137;-76
2023/08/02 02:11:36;;;;;;;6.88;4.60;;;16.30;99.90;;;;;;5080181;27;20055;-79
2023/08/02 02:14:25;;;;;;;8.70;5.10;;;16.30;99.90;;;;;;5087629;27;20047;-76
2023/08/02 02:17:12;;;;;;;8.40;5.38;;;16.20;99.90;;;;;;5091980;27;20131;-77
2023/08/02 02:20:07;;;;;;;8.43;4.65;;;16.20;99.90;;;;;;5031195;27;20091;-76
2023/08/02 02:22:43;;;;;;;8.35;4.38;;;16.20;99.90;;;;;;5078337;27;20504;-78
2023/08/02 02:25:47;;;;;;;7.00;4.50;;;16.20;99.90;;;;;;5084452;27;20159;-77
2023/08/02 02:28:41;;;;;;;12.43;5.00;;;16.20;99.90;;;;;;5098853;27;20049;-78
2023/08/02 02:31:49;;;;;;;6.45;5.05;;;16.20;99.90;;;;;;5096441;27;20044;-79
2023/08/02 02:34:53;;;;;;;6.72;4.53;;;16.20;99.90;;;;;;5097045;27;20063;-76
2023/08/02 02:38:04;;;;;;;6.63;4.18;;;16.20;99.90;;;;;;5098560;27;20081;-77
2023/08/02 02:40:55;;;;;;;6.28;4.13;;;16.20;99.90;;;;;;5092381;27;20047;-77
2023/08/02 02:43:48;;;;;;;9.77;4.43;;;16.20;99.90;;;;;;5108402;27;20049;-76
2023/08/02 02:46:59;;;;;;;7.07;3.85;;;16.20;99.90;;;;;;5099993;27;20091;-74
2023/08/02 02:50:02;;;;;;;7.53;3.95;;;16.00;99.90;;;;;;5098592;27;20063;-75
2023/08/02 02:52:51;;;;;;;6.63;3.80;;;16.20;99.90;;;;;;5092951;27;20050;-79
2023/08/02 02:55:52;;;;;;;9.15;4.72;;;16.20;99.90;;;;;;5095045;27;20047;-79
2023/08/02 02:58:44;;;;;;;12.30;4.40;;;16.20;99.90;;;;;;5111842;27;20047;-78
2023/08/02 03:01:38;;;;;;;6.45;4.15;;;16.10;99.90;;;;;;5108275;27;20058;-79
2023/08/02 03:04:36;;;;;;;6.10;4.10;;;16.10;99.90;;;;;;5084908;27;20052;-78
2023/08/02 03:07:25;;;;;;;11.00;4.20;;;16.10;99.90;;;;;;5098563;27;20040;-79
2023/08/02 03:10:40;;;;;;;7.32;4.30;;;16.10;99.90;;;;;;5110843;27;20571;-80
2023/08/02 03:13:47;;;;;;;10.50;4.70;;;15.90;99.90;;;;;;5084649;27;20627;-79
2023/08/02 03:16:47;;;;;;;10.98;4.78;;;16.00;99.90;;;;;;5089506;27;20271;-76
2023/08/02 03:19:47;;;;;;;10.18;4.22;;;16.00;99.90;;;;;;5107840;27;20102;-75
2023/08/02 03:22:30;;;;;;;11.50;4.53;;;16.00;99.90;;;;;;5076546;27;20059;-79
2023/08/02 03:25:51;;;;;;;11.13;4.40;;;16.00;99.90;;;;;;5073247;27;20525;-78
2023/08/02 03:29:20;;;;;;;10.68;4.30;;;15.90;99.90;;;;;;5098461;27;20100;-78
2023/08/02 03:32:08;;;;;;;13.07;4.70;;;15.90;99.90;;;;;;5099427;27;20160;-76
2023/08/02 03:35:31;;;;;;;14.85;5.40;;;15.90;99.90;;;;;;5049838;28;20092;-77
2023/08/02 03:38:26;;;;;;;13.85;4.90;;;15.90;99.90;;;;;;5035073;28;20488;-77
2023/08/02 03:41:39;;;;;;;12.95;5.03;;;16.00;99.90;;;;;;5022631;28;20044;-76
2023/08/02 03:44:53;;;;;;;13.07;5.55;;;16.00;99.90;;;;;;5035053;28;20087;-75
2023/08/02 03:47:37;;;;;;;12.23;5.72;;;16.10;99.90;;;;;;5031915;28;20320;-75
2023/08/02 03:50:40;;;;;;;13.60;6.13;;;16.10;99.90;;;;;;5052243;28;20212;-77
2023/08/02 03:53:43;;;;;;;14.68;5.38;;;16.20;99.90;;;;;;5035879;28;20079;-77
2023/08/02 04:00:18;;;;;;;14.82;6.72;;;16.20;99.90;;;;;;5033549;28;20064;-79
2023/08/02 04:03:21;;;;;;;17.48;6.65;;;16.20;99.90;;;;;;5050579;28;20075;-77
2023/08/02 04:06:32;;;;;;;17.52;6.20;;;16.30;99.90;;;;;;5073580;27;20109;-78
2023/08/02 04:09:32;;;;;;;18.05;6.53;;;16.30;99.90;;;;;;5073325;27;20113;-78
2023/08/02 04:12:31;;;;;;;17.17;6.45;;;16.40;99.90;;;;;;5097837;27;20051;-75
2023/08/02 04:15:31;;;;;;;17.73;6.55;;;16.30;99.90;;;;;;5087751;27;20096;-76
2023/08/02 04:18:46;;;;;;;18.83;6.45;;;16.30;99.90;;;;;;5083920;27;20047;-78
2023/08/02 04:21:39;;;;;;;13.05;6.35;;;16.30;99.90;;;;;;5089197;27;20075;-75
2023/08/02 04:24:33;;;;;;;16.77;7.28;;;16.30;99.90;;;;;;5096782;28;20043;-75
2023/08/02 04:27:41;;;;;;;14.95;6.20;;;16.30;99.90;;;;;;5082874;27;20098;-77
2023/08/02 04:30:36;;;;;;;17.23;6.40;;;16.30;99.90;;;;;;5091922;27;20387;-75
2023/08/02 04:33:31;;;;;;;17.75;7.40;;;16.30;99.90;;;;;;5103750;27;21891;-79
2023/08/02 04:36:41;;;;;;;17.42;5.85;;;16.30;99.90;;;;;;5093116;27;20043;-75
2023/08/02 04:39:38;;;;;;;14.38;7.07;;;16.30;99.90;;;;;;5060939;27;20062;-78
2023/08/02 04:42:33;;;;;;;14.45;6.93;;;16.30;99.90;;;;;;5078166;27;20050;-75
2023/08/02 04:45:44;;;;;;;14.18;6.85;;;16.30;99.90;;;;;;5058949;27;20624;-75
2023/08/02 04:48:52;;;;;;;15.77;7.50;;;16.30;99.90;;;;;;5106551;27;20047;-75
2023/08/02 04:51:55;;;;;;;16.42;7.32;;;16.30;99.90;;;;;;5090759;27;20552;-78
2023/08/02 04:55:03;;;;;;;16.08;8.05;;;16.30;99.90;;;;;;5089283;27;20062;-75
2023/08/02 04:58:08;;;;;;;14.02;7.53;;;16.20;99.90;;;;;;5086602;28;20380;-76
2023/08/02 05:04:39;;;;;;;16.90;8.23;;;16.20;99.90;;;;;;5095645;27;20550;-76
2023/08/02 05:07:49;;;;;;;17.33;7.22;;;16.20;99.90;;;;;;5102605;27;20100;-76
2023/08/02 05:10:52;;;;;;;16.70;7.97;;;16.20;99.90;;;;;;5092040;28;20051;-76
2023/08/02 05:13:56;;;;;;;18.27;7.70;;;16.20;99.90;;;;;;5067335;28;20507;-76
2023/08/02 05:17:07;;;;;;;16.65;8.00;;;15.70;99.90;;;;;;5104534;28;20561;-76
2023/08/02 05:20:01;;;;;;;15.52;7.97;;;16.30;99.90;;;;;;5105667;28;20131;-77
2023/08/02 05:22:51;;;;;;;19.30;8.80;;;16.30;99.90;;;;;;5076486;28;20055;-76
2023/08/02 05:25:45;;;;;;;23.33;8.55;;;16.30;99.90;;;;;;5105911;28;20066;-77
2023/08/02 05:28:38;;;;;;;15.68;8.30;;;16.30;99.90;;;;;;5092069;28;20090;-76
2023/08/02 05:31:10;;;;;;;18.77;8.90;;;16.40;99.90;;;;;;5093683;27;20043;-76
2023/08/02 05:34:04;;;;;;;16.40;8.57;;;16.40;99.90;;;;;;5104500;27;20043;-77
2023/08/02 05:36:36;;;;;;;16.58;8.93;;;16.40;99.90;;;;;;5091860;27;20113;-76
2023/08/02 05:39:03;;;;;;;19.20;8.85;;;16.50;99.90;;;;;;5093862;27;20043;-79
2023/08/02 05:44:41;;;;;;;17.55;10.63;;;16.60;99.90;;;;;;5072153;28;20513;-78
2023/08/02 05:47:27;;;;;;;17.27;10.05;;;16.60;99.90;;;;;;5046555;28;20060;-76
2023/08/02 05:50:14;;;;;;;;;;;16.60;99.90;;;;;;5074417;28;20081;-76
2023/08/02 05:52:49;;;;;;;15.38;10.02;;;16.60;99.90;;;;;;5054650;28;19947;-76
2023/08/02 05:55:16;;;;;;;15.73;9.45;;;16.60;99.90;;;;;;5024912;28;20055;-78
2023/08/02 05:58:01;;;;;;;14.73;9.05;;;16.70;99.90;;;;;;5055502;28;20057;-74
2023/08/02 06:00:36;;;;;;;13.50;9.13;;;16.70;99.90;;;;;;5054661;28;20136;-76
2023/08/02 06:04:01;;;;;;;13.65;8.48;;;16.70;99.90;;;;;;5059540;28;20647;-75
2023/08/02 06:06:48;;;;;;;14.00;8.38;;;16.80;99.90;;;;;;5058601;28;20487;-75
2023/08/02 06:10:02;;;;;;;16.50;8.07;;;16.80;99.90;;;;;;5071468;28;20055;-75
2023/08/02 06:13:25;;;;;;;16.50;8.40;;;17.40;99.90;;;;;;5061078;28;20207;-76
2023/08/02 06:15:53;;;;;;;14.50;8.27;;;16.80;99.90;;;;;;5063471;28;20047;-74
2023/08/02 06:18:36;;;;;;;14.20;8.05;;;16.80;99.90;;;;;;5004398;28;20363;-77
2023/08/02 06:21:37;;;;;;;15.23;7.22;;;16.80;99.90;;;;;;4983953;28;20042;-76
2023/08/02 06:24:45;;;;;;;12.32;7.32;;;16.80;99.90;;;;;;5017138;28;20047;-75
2023/08/02 06:27:48;;;;;;;14.10;7.95;;;16.70;99.90;;;;;;5016488;28;20061;-77
2023/08/02 06:31:06;;;;;;;15.25;7.55;;;16.70;99.90;;;;;;4992286;28;20052;-77
2023/08/02 06:34:14;;;;;;;12.95;7.72;;;16.60;99.90;;;;;;4947316;28;20105;-76
2023/08/02 06:37:15;;;;;;;13.43;7.60;;;16.60;99.90;;;;;;4924028;29;20574;-75
2023/08/02 06:40:15;;;;;;;13.80;7.57;;;16.60;99.90;;;;;;4906592;29;20048;-75
2023/08/02 06:43:08;;;;;;;14.13;8.02;;;16.50;99.90;;;;;;4921266;29;20134;-75
2023/08/02 06:46:43;;;;;;;11.02;6.55;;;16.60;99.90;;;;;;4903837;29;20059;-77
2023/08/02 06:49:38;;;;;;;15.80;7.40;;;16.50;99.90;;;;;;4918578;28;20106;-76
2023/08/02 06:52:09;;;;;;;;;;;17.20;99.90;;;;;;4932459;28;20209;-75
2023/08/02 06:55:19;;;;;;;12.43;6.50;;;16.50;99.90;;;;;;4926194;28;21319;-76
2023/08/02 06:58:22;;;;;;;17.30;6.65;;;16.50;99.90;;;;;;4957243;28;20149;-76
2023/08/02 07:01:31;;;;;;;10.18;6.30;;;16.40;99.90;;;;;;4958079;28;20049;-76
2023/08/02 07:04:41;;;;;;;14.98;6.53;;;16.50;99.90;;;;;;4967211;28;20098;-75
2023/08/02 07:07:31;;;;;;;10.98;5.82;;;16.50;99.90;;;;;;5075375;27;20265;-77
2023/08/02 07:17:39;;;;;;;12.30;5.68;;;16.40;99.90;;;;;;5114096;27;20140;-78
2023/08/02 07:21:22;;;;;;;9.93;5.82;;;16.40;99.90;;;;;;5086059;27;20047;-76
2023/08/02 07:24:14;;;;;;;10.50;6.18;;;16.30;99.90;;;;;;5074566;27;20143;-76
2023/08/02 07:27:00;;;;;;;11.60;6.05;;;16.30;99.90;;;;;;5112703;27;20079;-77
2023/08/02 07:29:49;;;;;;;11.82;6.00;;;16.30;99.90;;;;;;5112158;27;20047;-77
2023/08/02 07:33:06;;;;;;;11.02;5.80;;;16.20;99.90;;;;;;5111414;27;20047;-76
2023/08/02 07:36:16;;;;;;;10.20;5.10;;;16.20;99.90;;;;;;5095710;27;20047;-78
2023/08/02 07:39:10;;;;;;;12.52;5.07;;;16.10;99.90;;;;;;5093866;27;20074;-76
2023/08/02 07:42:21;;;;;;;10.00;5.40;;;16.10;99.90;;;;;;5108982;27;20112;-76
2023/08/02 07:45:28;;;;;;;10.52;4.88;;;16.00;99.90;;;;;;5093340;27;20058;-76
2023/08/02 07:48:18;;;;;;;8.13;4.68;;;16.10;99.90;;;;;;5077067;27;20066;-77
2023/08/02 07:51:14;;;;;;;9.30;4.53;;;16.20;99.90;;;;;;5100005;27;20052;-76
2023/08/02 07:54:09;;;;;;;11.40;5.15;;;15.90;99.90;;;;;;5077506;27;20081;-77
2023/08/02 07:57:43;;;;;;;10.98;5.00;;;15.90;99.90;;;;;;5107579;27;20055;-76
2023/08/02 08:01:21;;;;;;;9.82;4.82;;;15.90;99.90;;;;;;5112524;27;20055;-75
2023/08/02 08:04:09;;;;;;;8.57;4.43;;;15.90;99.90;;;;;;5095304;27;20046;-76
2023/08/02 08:07:01;;;;;;;9.30;5.03;;;15.70;99.90;;;;;;5072405;27;20058;-75
2023/08/02 08:10:06;;;;;;;;;;;15.90;99.90;;;;;;5109581;27;20039;-76
2023/08/02 08:12:59;;;;;;;10.40;4.50;;;15.90;99.90;;;;;;5098080;27;19932;-77
2023/08/02 08:15:49;;;;;;;9.77;5.78;;;16.00;99.90;;;;;;5110499;27;20134;-76
2023/08/02 08:18:41;;;;;;;9.10;5.05;;;16.00;99.90;;;;;;5093508;27;20501;-75
2023/08/02 08:21:36;;;;;;;10.82;6.07;;;16.00;99.90;;;;;;5092820;27;20078;-76
2023/08/02 08:24:23;;;;;;;;;;;16.00;99.90;;;;;;5114359;27;20498;-76
2023/08/02 08:27:10;;;;;;;9.30;5.35;;;16.00;99.90;;;;;;5116257;27;19930;-75
2023/08/02 08:30:06;;;;;;;7.85;5.03;;;15.90;99.90;;;;;;5112133;27;20062;-77
2023/08/02 08:33:21;;;;;;;9.63;5.18;;;16.00;99.90;;;;;;5096414;27;20094;-76
2023/08/02 08:35:58;;;;;;;7.38;4.10;;;16.00;99.90;;;;;;5111939;27;20120;-78
2023/08/02 08:39:10;;;;;;;7.05;4.13;;;16.00;99.90;;;;;;5110328;27;20051;-76
2023/08/02 08:42:06;;;;;;;6.10;4.18;;;16.00;99.90;;;;;;5080794;28;20198;-76
2023/08/02 08:44:59;;;;;;;5.85;4.00;;;16.00;99.90;;;;;;5104161;27;20035;-77
2023/08/02 08:47:59;;;;;;;7.43;4.38;;;16.00;99.90;;;;;;5096839;27;20062;-76
2023/08/02 08:51:13;;;;;;;6.90;3.83;;;16.00;99.90;;;;;;5114571;27;20050;-77
2023/08/02 08:54:18;;;;;;;5.88;3.55;;;16.00;99.90;;;;;;5113933;27;20508;-77
2023/08/02 08:57:20;;;;;;;6.38;3.78;;;16.00;99.90;;;;;;5112145;27;20062;-76
2023/08/02 09:00:11;;;;;;;7.25;4.05;;;16.00;99.90;;;;;;5099790;27;20043;-78
2023/08/02 09:03:13;;;;;;;4.32;3.40;;;16.00;99.90;;;;;;5103700;27;20043;-76
2023/08/02 09:06:15;;;;;;;6.55;3.95;;;15.40;99.90;;;;;;5101861;27;20477;-76
2023/08/02 09:09:29;;;;;;;6.40;3.67;;;16.00;99.90;;;;;;5094546;27;20524;-78
2023/08/02 09:12:18;;;;;;;5.57;3.10;;;16.00;99.90;;;;;;5112532;28;20060;-77
2023/08/02 09:15:04;;;;;;;5.07;2.85;;;16.10;99.90;;;;;;5065222;28;20395;-76
2023/08/02 09:18:05;;;;;;;;;;;16.10;99.90;;;;;;5074383;28;20508;-79
2023/08/02 09:20:35;;;;;;;5.60;3.25;;;16.10;99.90;;;;;;5088792;28;20449;-82
2023/08/02 09:23:32;;;;;;;5.30;2.88;;;16.20;99.90;;;;;;5094926;28;20059;-78
2023/08/02 09:26:24;;;;;;;6.07;3.50;;;16.20;99.90;;;;;;5068646;28;20055;-78
2023/08/02 09:29:09;;;;;;;;;;;16.20;99.90;;;;;;5071262;28;20062;-79
2023/08/02 09:32:01;;;;;;;4.75;3.10;;;16.20;99.90;;;;;;5086490;28;20434;-78
2023/08/02 09:35:00;;;;;;;4.43;3.15;;;16.20;99.90;;;;;;5075522;28;20681;-81
2023/08/02 09:37:50;;;;;;;4.20;3.50;;;16.20;99.90;;;;;;5048463;28;20068;-80
2023/08/02 09:40:17;;;;;;;5.35;3.30;;;16.30;99.90;;;;;;5031140;28;20037;-81
2023/08/02 09:42:44;;;;;;;4.70;3.65;;;16.30;99.90;;;;;;5029105;28;20593;-78
2023/08/02 09:46:39;;;;;;;5.30;3.50;;;16.30;99.90;;;;;;5008905;28;20869;-79
2023/08/02 09:49:39;;;;;;;5.10;4.10;;;16.40;99.90;;;;;;5030743;28;20743;-78
2023/08/02 09:52:34;;;;;;;5.00;3.90;;;16.40;99.90;;;;;;5037082;28;20049;-76
2023/08/02 09:55:24;;;;;;;6.72;4.35;;;16.50;99.90;;;;;;5014971;28;20495;-76
2023/08/02 09:58:29;;;;;;;6.82;4.65;;;16.50;99.90;;;;;;5035411;28;20227;-76
2023/08/02 10:01:21;;;;;;;5.55;4.35;;;17.10;99.90;;;;;;5034775;28;20807;-75
2023/08/02 10:04:34;;;;;;;5.25;4.40;;;16.60;99.90;;;;;;5042434;28;20190;-75
2023/08/02 10:07:20;;;;;;;6.35;4.50;;;16.60;99.90;;;;;;5053111;28;20460;-75
2023/08/02 10:10:38;;;;;;;7.18;4.35;;;16.50;99.90;;;;;;5082509;28;20087;-76
2023/08/02 10:13:59;;;;;;;5.97;4.20;;;16.60;99.90;;;;;;5107793;28;20078;-75
2023/08/02 10:17:17;;;;;;;6.78;4.05;;;16.60;99.90;;;;;;5108757;28;20047;-75
2023/08/02 10:20:20;;;;;;;5.05;3.70;;;16.60;99.90;;;;;;5083099;27;20043;-75
2023/08/02 10:23:17;;;;;;;5.03;3.88;;;16.50;99.90;;;;;;5111664;27;20662;-78
2023/08/02 10:26:23;;;;;;;4.28;3.78;;;16.50;99.90;;;;;;5083443;27;20529;-75
2023/08/02 10:29:35;;;;;;;5.32;3.85;;;16.50;99.90;;;;;;5111172;27;20549;-77
2023/08/02 10:32:40;;;;;;;4.25;3.70;;;16.50;99.90;;;;;;5055107;28;20075;-79
2023/08/02 10:35:45;;;;;;;4.93;4.07;;;16.30;99.90;;;;;;5059907;28;20196;-79
2023/08/02 10:38:55;;;;;;;4.10;3.70;;;16.60;99.90;;;;;;5074897;28;20058;-78
2023/08/02 10:41:32;;;;;;;4.10;3.70;;;16.50;99.90;;;;;;5028327;28;20060;-79
2023/08/02 10:44:29;;;;;;;3.92;3.45;;;16.60;99.90;;;;;;5030903;28;20064;-80
2023/08/02 10:47:43;;;;;;;4.95;3.55;;;16.60;99.90;;;;;;5064420;28;20383;-79
2023/08/02 10:50:44;;;;;;;3.97;3.10;;;16.60;99.90;;;;;;5077518;28;20035;-79
2023/08/02 10:53:14;;;;;;;3.42;3.00;;;16.70;99.90;;;;;;5061085;28;20939;-79
2023/08/02 10:56:16;;;;;;;3.75;3.10;;;16.70;99.90;;;;;;5061954;28;20499;-80
2023/08/02 10:58:57;;;;;;;3.42;3.03;;;16.70;99.90;;;;;;5055981;28;20044;-81
2023/08/02 11:01:44;;;;;;;4.10;2.90;;;16.40;99.90;;;;;;5057656;28;20071;-78
2023/08/02 11:04:16;;;;;;;4.85;3.33;;;16.80;99.90;;;;;;5072552;28;20060;-78
2023/08/02 11:06:42;;;;;;;4.63;3.28;;;17.00;99.90;;;;;;5057479;28;20522;-79
2023/08/02 11:09:08;;;;;;;5.60;3.85;;;17.20;99.90;;;;;;5028472;28;20040;-78
2023/08/02 11:12:18;;;;;;;4.53;3.95;;;17.30;99.90;;;;;;5065336;28;20043;-78
2023/08/02 11:14:48;;;;;;;5.43;3.90;;;17.40;99.90;;;;;;5056554;28;20125;-78
2023/08/02 11:17:39;;;;;;;5.25;4.75;;;17.50;99.90;;;;;;5074597;28;20056;-77
2023/08/02 11:20:25;;;;;;;6.07;5.22;;;17.70;99.90;;;;;;5025698;28;20705;-83
2023/08/02 11:22:51;;;;;;;5.07;4.57;;;18.00;99.90;;;;;;5054791;28;20059;-79
2023/08/02 11:25:48;;;;;;;5.00;4.50;;;18.10;99.90;;;;;;5071489;28;20076;-76
2023/08/02 11:28:56;;;;;;;4.00;3.58;;;18.20;99.90;;;;;;5060342;28;20075;-75
2023/08/02 11:31:25;;;;;;;4.70;3.70;;;18.20;99.90;;;;;;5054014;28;20399;-78
2023/08/02 11:33:52;;;;;;;3.75;3.30;;;18.20;99.90;;;;;;5054523;28;20045;-78
2023/08/02 11:36:33;;;;;;;3.78;3.10;;;18.40;99.90;;;;;;5057038;28;20044;-78
2023/08/02 11:39:20;;;;;;;4.72;3.20;;;18.50;99.90;;;;;;5043577;28;20594;-78
2023/08/02 11:42:06;;;;;;;;;;;18.50;99.90;;;;;;5071818;28;20031;-77
2023/08/02 11:44:32;;;;;;;4.47;3.15;;;18.50;99.90;;;;;;5044563;28;19931;-73
2023/08/02 11:47:00;;;;;;;4.65;3.03;;;18.60;99.90;;;;;;5070939;28;20049;-72
2023/08/02 11:50:07;;;;;;;3.45;3.15;;;18.70;99.90;;;;;;5047073;28;20058;-74
2023/08/02 11:52:39;;;;;;;4.72;3.50;;;18.90;99.90;;;;;;5049626;28;20841;-73
2023/08/02 11:55:14;;;;;;;3.95;3.33;;;19.00;99.90;;;;;;5058871;28;20132;-76
2023/08/02 11:57:42;;;;;;;4.45;3.58;;;18.90;99.90;;;;;;5041492;28;20451;-73
2023/08/02 12:00:12;;;;;;;4.68;3.38;;;19.00;99.90;;;;;;5056572;28;20056;-74
2023/08/02 12:02:57;;;;;;;4.47;3.80;;;19.50;99.90;;;;;;5073325;28;20594;-74
2023/08/02 12:06:10;;;;;;;4.35;3.45;;;19.30;99.90;;;;;;5071462;28;20834;-75
2023/08/02 12:09:16;;;;;;;3.97;3.58;;;19.60;99.90;;;;;;5062421;28;20510;-74
2023/08/02 12:12:20;;;;;;;4.18;3.15;;;19.70;99.90;;;;;;5056790;28;20113;-74
2023/08/02 12:15:03;;;;;;;5.65;2.38;;;20.00;99.90;;;;;;5042522;28;20398;-74
2023/08/02 12:20:55;;;;;;;6.95;2.58;;;20.50;99.90;;;;;;5057460;28;20043;-74
2023/08/02 12:23:39;;;;;;;6.78;2.70;;;20.90;99.90;;;;;;5051202;28;20059;-76
2023/08/02 12:34:31;;;;;;;5.32;2.05;;;22.00;99.90;;;;;;5073343;28;20390;-75
2023/08/02 12:37:38;;;;;;;6.68;2.42;;;22.30;99.90;;;;;;5035843;28;20088;-76
2023/08/02 12:40:43;;;;;;;5.10;1.65;;;22.60;99.90;;;;;;5017221;28;20909;-76
2023/08/02 12:43:55;;;;;;;7.50;1.90;;;23.00;99.90;;;;;;5034367;28;20053;-76
2023/08/02 12:46:45;;;;;;;7.43;1.65;;;23.20;99.90;;;;;;5003022;28;20143;-78
2023/08/02 12:49:12;;;;;;;3.72;1.60;;;23.20;99.90;;;;;;5021920;28;20107;-75
2023/08/02 12:51:43;;;;;;;5.88;1.38;;;23.50;99.90;;;;;;5021243;28;20140;-76
2023/08/02 12:55:16;;;;;;;5.57;1.50;;;23.30;99.90;;;;;;5005439;28;20750;-78
2023/08/02 12:58:52;;;;;;;5.25;1.38;;;23.60;99.90;;;;;;4984432;28;20052;-76
2023/08/02 13:01:37;;;;;;;12.40;1.80;;;23.20;96.80;;;;;;4994162;28;20046;-78
2023/08/02 13:04:39;;;;;;;7.03;1.50;;;23.00;97.50;;;;;;4980040;28;20108;-76
2023/08/02 13:07:06;;;;;;;9.02;1.63;;;22.90;93.70;;;;;;4982761;28;20152;-75
2023/08/02 13:09:40;;;;;;;8.10;1.88;;;22.80;96.80;;;;;;4994434;28;20072;-77
2023/08/02 13:12:09;;;;;;;7.43;2.13;;;22.70;95.80;;;;;;5014114;28;20049;-76
2023/08/02 13:14:38;;;;;;;10.43;2.10;;;22.60;95.20;;;;;;5037078;28;20091;-76
2023/08/02 13:17:06;;;;;;;22.90;2.67;;;22.50;94.90;;;;;;5020399;28;20056;-78
2023/08/02 13:19:40;;;;;;;8.10;1.85;;;22.50;94.20;;;;;;5021414;28;20041;-75
2023/08/02 13:22:19;;;;;;;8.27;2.05;;;22.60;93.80;;;;;;4988235;28;21374;-76
2023/08/02 13:24:45;;;;;;;10.38;2.10;;;22.70;93.00;;;;;;5019402;28;20052;-76
2023/08/02 13:27:11;;;;;;;5.82;1.55;;;22.80;92.60;;;;;;5017368;28;20049;-76
2023/08/02 13:29:37;;;;;;;8.00;1.65;;;23.00;92.20;;;;;;5032955;28;20555;-76
2023/08/02 13:32:03;;;;;;;7.15;1.45;;;23.10;91.50;;;;;;5056273;28;20047;-76
2023/08/02 13:34:29;;;;;;;7.63;1.92;;;23.40;90.60;;;;;;5059294;28;20101;-76
2023/08/02 13:36:55;;;;;;;6.35;1.90;;;23.40;89.50;;;;;;5026919;28;20153;-76
2023/08/02 13:39:20;;;;;;;8.35;2.10;;;22.90;85.60;;;;;;5044019;28;20064;-75
2023/08/02 13:41:46;;;;;;;8.95;2.10;;;23.50;85.10;;;;;;5057372;28;20188;-77
2023/08/02 13:44:16;;;;;;;11.65;2.33;;;23.30;84.90;;;;;;5043635;28;20052;-76
2023/08/02 13:46:42;;;;;;;8.13;2.50;;;23.20;85.30;;;;;;5059978;28;20159;-75
2023/08/02 13:49:08;;;;;;;8.73;1.85;;;23.00;84.10;;;;;;5043970;28;20048;-78
2023/08/02 13:51:37;;;;;;;13.60;2.38;;;23.10;84.60;;;;;;5042119;28;20941;-77
2023/08/02 13:54:03;;;;;;;7.80;2.17;;;23.10;85.10;;;;;;5046647;28;20047;-76
2023/08/02 13:56:29;;;;;;;9.52;1.70;;;23.00;84.70;;;;;;5065305;28;20055;-78
2023/08/02 13:58:54;;;;;;;10.55;2.33;;;23.10;84.60;;;;;;5044891;28;20095;-78
2023/08/02 14:01:20;;;;;;;10.05;2.33;;;23.10;84.00;;;;;;5063845;28;20040;-76
2023/08/02 14:03:47;;;;;;;9.55;2.28;;;23.40;81.60;;;;;;5076513;28;20047;-76
2023/08/02 14:06:13;;;;;;;12.65;2.25;;;23.60;79.90;;;;;;5043387;28;20116;-76
2023/08/02 14:08:39;;;;;;;8.52;2.30;;;23.60;76.50;;;;;;5057579;28;20044;-76
2023/08/02 14:11:08;;;;;;;10.07;2.65;;;23.50;75.00;;;;;;5061249;28;20055;-76
2023/08/02 14:13:34;;;;;;;11.48;2.13;;;23.50;74.90;;;;;;5041133;28;20051;-75
2023/08/02 14:15:59;;;;;;;9.88;2.38;;;23.30;75.00;;;;;;5046928;28;20056;-76
2023/08/02 14:18:26;;;;;;;14.52;2.60;;;23.30;76.50;;;;;;5041698;28;20075;-77
2023/08/02 14:20:52;;;;;;;13.85;2.35;;;23.10;75.90;;;;;;5058820;28;20102;-76
2023/08/02 14:23:17;;;;;;;9.30;2.45;;;23.00;74.70;;;;;;5059037;28;20070;-74
2023/08/02 14:25:44;;;;;;;12.68;2.60;;;23.10;74.30;;;;;;5044039;28;20483;-74
2023/08/02 14:28:09;;;;;;;8.63;2.65;;;23.20;74.30;;;;;;5028968;28;20508;-75
2023/08/02 14:30:35;;;;;;;8.88;2.33;;;23.40;73.10;;;;;;5044392;28;20123;-75
2023/08/02 14:33:01;;;;;;;10.85;2.50;;;23.40;73.40;;;;;;5055872;28;20086;-74
2023/08/02 14:35:27;;;;;;;9.88;2.05;;;23.60;72.60;;;;;;5043225;28;20043;-75
2023/08/02 14:37:53;;;;;;;12.95;2.47;;;23.40;71.90;;;;;;5059894;28;20044;-75
2023/08/02 14:40:20;;;;;;;8.05;2.22;;;23.00;70.00;;;;;;5059173;28;20184;-74
2023/08/02 14:42:46;;;;;;;9.43;2.47;;;22.60;72.20;;;;;;5058377;28;21554;-75
2023/08/02 14:45:13;;;;;;;12.48;2.80;;;22.60;75.10;;;;;;5062963;28;20118;-73
2023/08/02 14:47:38;;;;;;;10.35;2.28;;;22.70;79.50;;;;;;5042945;28;20075;-75
2023/08/02 14:50:05;;;;;;;13.07;2.25;;;22.90;81.60;;;;;;5041501;28;20123;-75
2023/08/02 14:52:32;;;;;;;10.40;2.13;;;22.90;80.10;;;;;;5024389;28;20145;-75
2023/08/02 14:54:59;;;;;;;9.32;2.30;;;22.90;78.00;;;;;;5042429;28;20052;-76
2023/08/02 14:57:26;;;;;;;12.98;2.83;;;22.60;75.50;;;;;;5058531;28;20048;-75
2023/08/02 14:59:52;;;;;;;12.23;2.65;;;22.30;75.50;;;;;;5029891;28;20487;-77
2023/08/02 15:02:17;;;;;;;14.18;4.03;;;22.00;76.80;;;;;;5026768;28;20059;-75
2023/08/02 15:04:45;;;;;;;11.05;2.17;;;22.00;78.80;;;;;;5048931;28;20050;-76
2023/08/02 15:07:12;;;;;;;12.18;2.78;;;22.00;79.20;;;;;;5048802;28;20052;-76
2023/08/02 15:09:38;;;;;;;11.30;2.55;;;22.00;79.50;;;;;;5062293;28;20123;-77
2023/08/02 15:12:05;;;;;;;13.95;2.83;;;22.10;79.70;;;;;;5028034;28;20091;-77
2023/08/02 15:14:32;;;;;;;12.77;2.75;;;22.00;78.40;;;;;;5047093;28;20063;-76
2023/08/02 15:16:57;;;;;;;11.40;2.50;;;21.90;77.20;;;;;;5060058;28;20040;-76
2023/08/02 15:19:23;;;;;;;15.88;2.63;;;21.80;77.70;;;;;;5045687;28;20540;-77
2023/08/02 15:21:49;;;;;;;13.05;2.75;;;21.70;79.50;;;;;;5046244;28;20059;-76